createdAt,value
2017-12-05T06:54:40.166Z,64.81
2017-12-05T06:54:40.704Z,64.72
2017-12-05T06:54:41.268Z,64.62
2017-12-05T06:54:41.805Z,64.72
2017-12-05T06:54:42.346Z,64.53
2017-12-05T06:54:42.910Z,64.53
2017-12-05T06:54:43.427Z,65.01
2017-12-05T06:54:43.920Z,65.10
2017-12-05T06:55:38.384Z,69.10
2017-12-05T06:55:38.907Z,69.01
2017-12-05T06:55:39.499Z,69.20
2017-12-05T06:55:40.047Z,69.10
2017-12-05T06:55:40.554Z,70.06
2017-12-05T06:55:41.084Z,70.06
2017-12-05T06:55:41.631Z,69.87
2017-12-05T06:55:42.190Z,69.58
2017-12-05T06:56:36.204Z,75.04
2017-12-05T06:56:36.694Z,75.42
2017-12-05T06:56:37.257Z,75.51
2017-12-05T06:56:37.744Z,75.51
2017-12-05T06:56:38.246Z,75.32
2017-12-05T06:56:38.805Z,75.23
2017-12-05T06:56:39.379Z,75.23
2017-12-05T06:56:39.922Z,75.13
2017-12-05T06:57:33.459Z,78.96
2017-12-05T06:57:34.029Z,78.96
2017-12-05T06:57:34.545Z,79.05
2017-12-05T06:57:35.067Z,79.24
2017-12-05T06:57:35.589Z,79.14
2017-12-05T06:57:36.109Z,79.05
2017-12-05T06:57:36.668Z,79.14
2017-12-05T06:57:37.241Z,78.96
2017-12-05T06:57:37.768Z,78.86
2017-12-05T06:58:32.811Z,82.87
2017-12-05T06:58:33.322Z,83.10
2017-12-05T06:58:33.833Z,83.19
2017-12-05T06:58:34.400Z,82.91
2017-12-05T06:58:34.962Z,83.19
2017-12-05T06:58:35.509Z,83.67
2017-12-05T06:59:29.354Z,86.57
2017-12-05T06:59:29.876Z,86.57
2017-12-05T06:59:30.394Z,87.05
2017-12-05T06:59:30.962Z,87.05
2017-12-05T06:59:31.483Z,87.34
2017-12-05T06:59:32.014Z,86.95
2017-12-05T06:59:32.543Z,86.76
2017-12-05T06:59:33.118Z,87.05
2017-12-05T07:01:18.224Z,90.71
2017-12-05T07:01:18.744Z,90.52
2017-12-05T07:01:19.251Z,90.52
2017-12-05T07:01:19.789Z,90.42
2017-12-05T07:01:20.310Z,90.52
2017-12-05T07:01:20.842Z,90.33
2017-12-05T07:01:21.384Z,90.33
2017-12-05T07:01:21.958Z,90.71
2017-12-05T07:02:15.933Z,91.80
2017-12-05T07:02:16.444Z,91.89
2017-12-05T07:02:16.955Z,92.18
2017-12-05T07:02:17.562Z,92.18
2017-12-05T07:02:18.046Z,92.09
2017-12-05T07:02:18.561Z,92.18
2017-12-05T07:02:19.128Z,91.71
2017-12-05T07:02:19.683Z,91.89
2017-12-05T07:04:04.298Z,94.46
2017-12-05T07:04:04.810Z,94.56
2017-12-05T07:04:05.317Z,94.56
2017-12-05T07:04:05.847Z,94.56
2017-12-05T07:04:06.378Z,94.56
2017-12-05T07:04:06.920Z,94.37
2017-12-05T07:04:07.430Z,94.65
2017-12-05T07:04:08.012Z,94.37
2017-12-05T07:04:08.552Z,94.93
2017-12-05T07:05:02.560Z,95.12
2017-12-05T07:05:03.088Z,95.12
2017-12-05T07:05:03.620Z,94.93
2017-12-05T07:05:04.138Z,94.93
2017-12-05T07:05:04.661Z,94.93
2017-12-05T07:05:05.242Z,95.03
2017-12-05T07:05:05.713Z,94.93
2017-12-05T07:05:06.235Z,94.93
2017-12-05T07:06:00.195Z,96.36
2017-12-05T07:06:00.774Z,96.36
2017-12-05T07:06:01.293Z,96.55
2017-12-05T07:06:01.864Z,96.08
2017-12-05T07:06:02.385Z,96.74
2017-12-05T07:06:02.942Z,96.55
2017-12-05T07:06:03.517Z,96.26
2017-12-05T07:06:04.091Z,96.74
2017-12-05T12:15:03.406Z,75.72
2017-12-05T12:15:03.863Z,75.15
2017-12-05T12:15:04.363Z,75.24
2017-12-05T12:15:04.907Z,75.05
2017-12-05T12:15:05.397Z,75.15
2017-12-05T12:15:06.016Z,75.05
2017-12-05T12:15:06.562Z,75.43
2017-12-05T12:15:07.108Z,75.43
2017-12-05T12:15:07.672Z,75.59
2017-12-05T12:15:08.212Z,75.43
2017-12-05T12:15:08.755Z,75.40
2017-12-05T12:15:09.249Z,75.40
2017-12-05T12:15:09.869Z,75.49
2017-12-05T12:15:10.396Z,75.53
2017-12-05T12:15:10.913Z,75.53
2017-12-05T12:15:11.451Z,74.73
2017-12-05T12:15:12.371Z,74.92
2017-12-05T12:15:12.875Z,75.05
2017-12-05T12:15:13.516Z,75.30
2017-12-05T12:15:13.844Z,75.20
2017-12-05T12:15:14.381Z,75.20
2017-12-05T12:15:14.963Z,75.05
2017-12-05T12:15:15.510Z,75.01
2017-12-05T12:15:16.063Z,75.01
2017-12-05T12:15:16.593Z,75.20
2017-12-05T12:15:17.197Z,75.01
2017-12-05T12:15:17.770Z,75.01
2017-12-05T12:15:18.307Z,75.01
2017-12-05T12:15:18.822Z,75.01
2017-12-05T12:15:19.373Z,74.92
2017-12-05T12:15:19.897Z,75.20
2017-12-05T12:15:20.459Z,74.92
2017-12-05T12:15:21.011Z,75.20
2017-12-05T12:15:21.591Z,74.63
2017-12-05T12:15:22.137Z,75.01
2017-12-05T12:15:22.737Z,75.11
2017-12-05T12:15:23.291Z,74.92
2017-12-05T12:15:23.991Z,74.82
2017-12-05T12:15:24.625Z,74.92
2017-12-05T12:15:25.179Z,75.40
2017-12-05T12:15:25.681Z,75.30
2017-12-05T12:15:26.215Z,75.30
2017-12-05T12:15:26.737Z,75.20
2017-12-05T12:15:27.270Z,75.11
2017-12-05T12:15:27.819Z,74.73
2017-12-05T12:15:28.349Z,75.11
2017-12-05T12:15:28.871Z,75.30
2017-12-05T12:15:29.444Z,75.20
2017-12-05T12:15:29.987Z,75.30
2017-12-05T12:15:30.513Z,75.11
2017-12-05T12:15:31.075Z,74.92
2017-12-05T12:15:31.663Z,75.01
2017-12-05T12:15:32.207Z,75.30
2017-12-05T12:15:32.785Z,74.92
2017-12-05T12:15:33.310Z,74.92
2017-12-05T12:15:33.831Z,75.20
2017-12-05T12:15:34.387Z,74.82
2017-12-05T12:15:35.011Z,74.92
2017-12-05T12:15:35.579Z,75.20
2017-12-05T12:15:36.136Z,75.20
2017-12-05T12:15:36.655Z,75.20
2017-12-05T12:15:37.189Z,74.82
2017-12-05T12:15:37.717Z,74.92
2017-12-05T12:15:38.275Z,75.01
2017-12-05T12:15:38.799Z,75.20
2017-12-05T12:15:39.331Z,75.01
2017-12-05T12:15:39.907Z,74.82
2017-12-05T12:15:40.549Z,74.82
2017-12-05T12:15:41.103Z,75.40
2017-12-05T12:15:41.657Z,75.01
2017-12-05T12:15:42.128Z,75.11
2017-12-05T12:15:42.727Z,75.11
2017-12-05T12:15:43.269Z,74.82
2017-12-05T12:15:43.832Z,75.11
2017-12-05T12:15:44.377Z,75.11
2017-12-05T12:15:44.938Z,75.01
2017-12-05T12:15:45.505Z,75.20
2017-12-05T12:15:46.039Z,75.20
2017-12-05T12:15:46.618Z,74.82
2017-12-05T12:15:47.143Z,74.88
2017-12-05T12:15:47.745Z,75.01
2017-12-05T12:15:48.269Z,75.01
2017-12-05T12:15:48.832Z,75.11
2017-12-05T12:15:49.361Z,75.11
2017-12-05T12:15:49.898Z,75.07
2017-12-05T12:15:50.469Z,75.07
2017-12-05T12:15:51.009Z,74.79
2017-12-05T12:15:51.571Z,75.20
2017-12-05T12:15:52.149Z,75.20
2017-12-05T12:15:52.672Z,74.88
2017-12-05T12:15:53.230Z,74.88
2017-12-05T12:15:53.801Z,74.79
2017-12-05T12:15:54.347Z,75.26
2017-12-05T12:15:54.866Z,75.49
2017-12-05T12:15:55.387Z,75.36
2017-12-05T12:15:55.918Z,75.45
2017-12-05T12:15:56.447Z,75.55
2017-12-05T12:15:57.013Z,75.26
2017-12-05T12:15:57.547Z,75.36
2017-12-05T12:15:58.136Z,75.26
2017-12-05T12:15:58.698Z,74.98
2017-12-05T12:15:59.223Z,75.07
2017-12-05T12:15:59.771Z,75.64
2017-12-05T12:16:00.289Z,75.45
2017-12-05T12:16:00.864Z,75.45
2017-12-05T12:16:01.422Z,75.55
2017-12-05T12:16:01.963Z,75.68
2017-12-05T12:16:02.562Z,75.36
2017-12-05T12:16:03.085Z,75.45
2017-12-05T12:16:03.678Z,75.16
2017-12-05T12:16:04.208Z,75.26
2017-12-05T12:16:04.737Z,75.26
2017-12-05T12:16:05.305Z,75.26
2017-12-05T12:16:05.835Z,75.16
2017-12-05T12:16:06.387Z,75.26
2017-12-05T12:16:06.989Z,75.36
2017-12-05T12:16:07.496Z,75.36
2017-12-05T12:16:08.051Z,75.55
2017-12-05T12:16:08.581Z,75.55
2017-12-05T12:16:09.160Z,75.93
2017-12-05T12:16:09.677Z,75.55
2017-12-05T12:16:10.207Z,75.74
2017-12-05T12:16:10.788Z,75.84
2017-12-05T12:16:11.315Z,75.84
2017-12-05T12:16:11.913Z,75.55
2017-12-05T12:16:12.437Z,75.16
2017-12-05T12:16:12.957Z,75.64
2017-12-05T12:16:13.497Z,75.74
2017-12-05T12:16:14.049Z,75.93
2017-12-05T12:16:14.613Z,75.64
2017-12-05T12:16:15.180Z,76.21
2017-12-05T12:16:15.705Z,76.31
2017-12-05T12:16:16.265Z,76.03
2017-12-05T12:16:16.787Z,76.03
2017-12-05T12:16:17.341Z,76.40
2017-12-05T12:16:17.857Z,76.40
2017-12-05T12:16:18.395Z,76.40
2017-12-05T12:16:18.951Z,76.40
2017-12-05T12:16:19.515Z,76.21
2017-12-05T12:16:20.023Z,76.50
2017-12-05T12:16:20.565Z,76.21
2017-12-05T12:16:21.087Z,76.31
2017-12-05T12:16:21.615Z,76.31
2017-12-05T12:16:22.123Z,76.21
2017-12-05T12:16:22.706Z,76.79
2017-12-05T12:16:23.222Z,76.69
2017-12-05T12:16:23.767Z,76.40
2017-12-05T12:16:24.286Z,76.98
2017-12-05T12:16:24.859Z,76.50
2017-12-05T12:16:25.423Z,76.79
2017-12-05T12:16:25.979Z,76.21
2017-12-05T12:16:26.549Z,76.79
2017-12-05T12:16:27.075Z,76.69
2017-12-05T12:16:27.605Z,76.40
2017-12-05T12:16:28.125Z,76.69
2017-12-05T12:16:28.710Z,76.40
2017-12-05T12:16:29.257Z,76.50
2017-12-05T12:16:29.829Z,76.50
2017-12-05T12:16:30.375Z,76.50
2017-12-05T12:16:30.853Z,76.46
2017-12-05T12:16:31.429Z,76.98
2017-12-05T12:16:31.969Z,76.69
2017-12-05T12:16:32.543Z,76.40
2017-12-05T12:16:33.057Z,76.88
2017-12-05T12:16:33.571Z,76.69
2017-12-05T12:16:34.131Z,76.75
2017-12-05T12:16:34.670Z,76.98
2017-12-05T12:16:35.218Z,76.79
2017-12-05T12:16:35.708Z,76.98
2017-12-05T12:16:36.230Z,76.75
2017-12-05T12:16:36.755Z,77.42
2017-12-05T12:16:37.296Z,76.65
2017-12-05T12:16:37.862Z,77.32
2017-12-05T12:16:38.300Z,77.22
2017-12-05T12:16:38.878Z,77.13
2017-12-05T12:16:39.448Z,76.94
2017-12-05T12:16:39.967Z,77.32
2017-12-05T12:16:40.541Z,77.51
2017-12-05T12:16:41.075Z,77.13
2017-12-05T12:16:41.606Z,77.22
2017-12-05T12:16:42.129Z,77.32
2017-12-05T12:16:42.715Z,77.98
2017-12-05T12:16:43.271Z,77.89
2017-12-05T12:16:43.795Z,77.89
2017-12-05T12:16:44.378Z,77.51
2017-12-05T12:16:44.895Z,77.70
2017-12-05T12:16:45.426Z,77.61
2017-12-05T12:16:45.968Z,77.42
2017-12-05T12:16:46.538Z,77.51
2017-12-05T12:16:47.113Z,77.22
2017-12-05T12:16:47.663Z,77.22
2017-12-05T12:16:48.210Z,77.80
2017-12-05T12:16:48.787Z,77.32
2017-12-05T12:16:49.339Z,78.08
2017-12-05T12:16:49.895Z,78.08
2017-12-05T12:16:50.425Z,77.89
2017-12-05T12:16:51.018Z,77.80
2017-12-05T12:16:51.574Z,77.89
2017-12-05T12:16:52.131Z,78.37
2017-12-05T12:16:52.719Z,78.46
2017-12-05T12:16:53.242Z,78.08
2017-12-05T12:16:53.777Z,78.46
2017-12-05T12:16:54.395Z,78.27
2017-12-05T12:16:54.929Z,78.27
2017-12-05T12:16:55.497Z,78.65
2017-12-05T12:16:56.073Z,78.85
2017-12-05T12:16:56.614Z,78.46
2017-12-05T12:16:57.218Z,78.27
2017-12-05T12:16:58.759Z,78.46
2017-12-05T12:16:59.157Z,78.46
2017-12-05T12:16:59.687Z,78.27
2017-12-05T12:17:00.211Z,78.17
2017-12-05T12:17:00.787Z,78.56
2017-12-05T12:17:01.334Z,78.37
2017-12-05T12:17:01.856Z,78.17
2017-12-05T12:17:02.371Z,78.37
2017-12-05T12:17:02.926Z,78.37
2017-12-05T12:17:03.506Z,78.17
2017-12-05T12:17:04.048Z,78.17
2017-12-05T12:17:04.600Z,78.56
2017-12-05T12:17:05.117Z,78.56
2017-12-05T12:17:05.657Z,78.65
2017-12-05T12:17:06.177Z,78.65
2017-12-05T12:17:06.697Z,79.22
2017-12-05T12:17:07.251Z,78.85
2017-12-05T12:17:07.821Z,78.85
2017-12-05T12:17:08.389Z,79.41
2017-12-05T12:17:08.913Z,79.13
2017-12-05T12:17:09.480Z,79.13
2017-12-05T12:17:10.061Z,79.41
2017-12-05T12:17:10.591Z,79.32
2017-12-05T12:17:11.115Z,79.13
2017-12-05T12:17:11.632Z,79.41
2017-12-05T12:17:12.158Z,78.94
2017-12-05T12:17:12.693Z,79.22
2017-12-05T12:17:13.251Z,79.32
2017-12-05T12:17:13.818Z,79.13
2017-12-05T12:17:14.367Z,79.32
2017-12-05T12:17:14.937Z,79.70
2017-12-05T12:17:15.457Z,79.70
2017-12-05T12:17:15.976Z,79.70
2017-12-05T12:17:16.565Z,79.32
2017-12-05T12:17:17.095Z,79.41
2017-12-05T12:17:17.669Z,79.32
2017-12-05T12:17:18.197Z,79.99
2017-12-05T12:17:18.782Z,79.70
2017-12-05T12:17:19.336Z,79.89
2017-12-05T12:17:19.889Z,79.70
2017-12-05T12:17:20.466Z,79.80
2017-12-05T12:17:20.983Z,79.60
2017-12-05T12:17:21.578Z,79.70
2017-12-05T12:17:22.131Z,79.51
2017-12-05T12:17:22.699Z,79.70
2017-12-05T12:17:23.255Z,79.70
2017-12-05T12:17:23.781Z,79.89
2017-12-05T12:17:24.318Z,79.89
2017-12-05T12:17:24.847Z,79.80
2017-12-05T12:17:25.424Z,79.89
2017-12-05T12:17:25.967Z,79.89
2017-12-05T12:17:26.497Z,79.89
2017-12-05T12:17:27.059Z,80.08
2017-12-05T12:17:27.621Z,79.99
2017-12-05T12:17:28.213Z,79.60
2017-12-05T12:17:28.804Z,80.08
2017-12-05T12:17:29.364Z,79.70
2017-12-05T12:17:29.883Z,80.18
2017-12-05T12:17:30.459Z,79.70
2017-12-05T12:17:30.993Z,79.70
2017-12-05T12:17:31.576Z,79.60
2017-12-05T12:17:32.097Z,79.85
2017-12-05T12:17:32.627Z,79.60
2017-12-05T12:17:33.229Z,79.66
2017-12-05T12:17:33.797Z,79.66
2017-12-05T12:17:34.403Z,79.66
2017-12-05T12:17:34.916Z,79.66
2017-12-05T12:17:35.450Z,80.04
2017-12-05T12:17:35.963Z,79.70
2017-12-05T12:17:36.541Z,79.66
2017-12-05T12:17:37.086Z,79.57
2017-12-05T12:17:37.606Z,79.60
2017-12-05T12:17:38.137Z,79.57
2017-12-05T12:17:38.667Z,79.57
2017-12-05T12:17:39.248Z,79.75
2017-12-05T12:17:39.767Z,79.66
2017-12-05T12:17:40.296Z,79.85
2017-12-05T12:17:40.871Z,79.66
2017-12-05T12:17:41.400Z,79.85
2017-12-05T12:17:41.938Z,79.75
2017-12-05T12:17:42.477Z,79.85
2017-12-05T12:17:43.005Z,79.57
2017-12-05T12:17:43.590Z,79.57
2017-12-05T12:17:44.124Z,79.38
2017-12-05T12:17:44.685Z,79.57
2017-12-05T12:17:45.201Z,79.47
2017-12-05T12:17:45.725Z,79.75
2017-12-05T12:17:46.297Z,79.66
2017-12-05T12:17:46.850Z,79.75
2017-12-05T12:17:47.419Z,79.28
2017-12-05T12:17:47.945Z,79.94
2017-12-05T12:17:48.536Z,79.94
2017-12-05T12:17:49.092Z,79.94
2017-12-05T12:17:49.657Z,80.04
2017-12-05T12:17:50.235Z,79.75
2017-12-05T12:17:50.745Z,80.42
2017-12-05T12:17:51.304Z,80.61
2017-12-05T12:17:51.828Z,80.71
2017-12-05T12:17:52.430Z,80.42
2017-12-05T12:17:52.947Z,80.52
2017-12-05T12:17:53.482Z,80.52
2017-12-05T12:17:54.019Z,80.33
2017-12-05T12:17:54.575Z,80.52
2017-12-05T12:17:55.149Z,80.13
2017-12-05T12:17:55.743Z,80.52
2017-12-05T12:17:56.267Z,80.42
2017-12-05T12:17:56.785Z,80.42
2017-12-05T12:17:57.357Z,80.52
2017-12-05T12:17:57.882Z,80.61
2017-12-05T12:17:58.425Z,80.80
2017-12-05T12:17:58.922Z,80.71
2017-12-05T12:17:59.505Z,80.42
2017-12-05T12:18:00.081Z,80.71
2017-12-05T12:18:00.617Z,80.33
2017-12-05T12:18:01.205Z,80.80
2017-12-05T12:18:01.732Z,80.90
2017-12-05T12:18:02.305Z,80.80
2017-12-05T12:18:02.817Z,80.90
2017-12-05T12:18:03.335Z,80.71
2017-12-05T12:18:03.916Z,80.52
2017-12-05T12:18:04.471Z,80.42
2017-12-05T12:18:05.031Z,81.09
2017-12-05T12:18:05.550Z,81.18
2017-12-05T12:18:06.136Z,80.99
2017-12-05T12:18:06.699Z,80.99
2017-12-05T12:18:07.255Z,80.99
2017-12-05T12:18:07.797Z,80.80
2017-12-05T12:18:08.317Z,81.28
2017-12-05T12:18:08.839Z,80.90
2017-12-05T12:18:09.361Z,81.18
2017-12-05T12:18:09.895Z,81.37
2017-12-05T12:18:10.465Z,81.56
2017-12-05T12:18:11.004Z,81.37
2017-12-05T12:18:11.607Z,81.28
2017-12-05T12:18:12.027Z,81.76
2017-12-05T12:18:12.515Z,81.37
2017-12-05T12:18:13.035Z,81.47
2017-12-05T12:18:13.580Z,81.56
2017-12-05T12:18:14.155Z,81.95
2017-12-05T12:18:14.696Z,81.47
2017-12-05T12:18:15.268Z,81.56
2017-12-05T12:18:15.789Z,81.56
2017-12-05T12:18:16.382Z,81.76
2017-12-05T12:18:16.909Z,82.04
2017-12-05T12:18:17.507Z,81.85
2017-12-05T12:18:18.045Z,82.04
2017-12-05T12:18:18.567Z,81.95
2017-12-05T12:18:19.085Z,82.14
2017-12-05T12:18:19.634Z,82.14
2017-12-05T12:18:20.207Z,82.14
2017-12-05T12:18:20.775Z,82.32
2017-12-05T12:18:21.306Z,82.04
2017-12-05T12:18:21.852Z,82.14
2017-12-05T12:18:22.376Z,82.23
2017-12-05T12:18:22.927Z,81.95
2017-12-05T12:18:23.507Z,82.51
2017-12-05T12:18:24.028Z,82.42
2017-12-05T12:18:24.598Z,82.42
2017-12-05T12:18:25.119Z,82.61
2017-12-05T12:18:25.687Z,82.42
2017-12-05T12:18:26.213Z,82.42
2017-12-05T12:18:26.783Z,82.42
2017-12-05T12:18:27.336Z,82.51
2017-12-05T12:18:27.868Z,82.42
2017-12-05T12:18:28.385Z,82.51
2017-12-05T12:18:28.924Z,82.14
2017-12-05T12:18:29.523Z,82.70
2017-12-05T12:18:30.052Z,82.99
2017-12-05T12:18:30.619Z,82.76
2017-12-05T12:18:31.177Z,82.95
2017-12-05T12:18:31.729Z,83.04
2017-12-05T12:18:32.247Z,82.80
2017-12-05T12:18:32.769Z,82.99
2017-12-05T12:18:33.359Z,82.70
2017-12-05T12:18:33.883Z,82.76
2017-12-05T12:18:34.420Z,82.86
2017-12-05T12:18:34.929Z,82.76
2017-12-05T12:18:35.505Z,82.86
2017-12-05T12:18:36.019Z,82.76
2017-12-05T12:18:36.537Z,82.67
2017-12-05T12:18:37.073Z,82.80
2017-12-05T12:18:37.669Z,82.95
2017-12-05T12:18:38.219Z,82.99
2017-12-05T12:18:38.767Z,82.67
2017-12-05T12:18:39.351Z,82.86
2017-12-05T12:18:39.895Z,82.86
2017-12-05T12:18:40.472Z,82.86
2017-12-05T12:18:41.062Z,82.76
2017-12-05T12:18:41.580Z,82.86
2017-12-05T12:18:42.143Z,82.80
2017-12-05T12:18:42.663Z,82.95
2017-12-05T12:18:43.259Z,82.67
2017-12-05T12:18:43.819Z,82.57
2017-12-05T12:18:44.387Z,82.57
2017-12-05T12:18:44.929Z,82.76
2017-12-05T12:18:45.456Z,82.57
2017-12-05T12:18:46.031Z,82.57
2017-12-05T12:18:46.601Z,82.48
2017-12-05T12:18:47.127Z,82.57
2017-12-05T12:18:47.653Z,82.67
2017-12-05T12:18:48.223Z,82.48
2017-12-05T12:18:48.769Z,82.67
2017-12-05T12:18:49.297Z,82.57
2017-12-05T12:18:49.851Z,82.57
2017-12-05T12:18:50.427Z,82.57
2017-12-05T12:18:50.953Z,82.57
2017-12-05T12:18:51.494Z,82.86
2017-12-05T12:18:52.013Z,82.95
2017-12-05T12:18:52.577Z,83.04
2017-12-05T12:18:53.147Z,83.04
2017-12-05T12:18:53.733Z,83.23
2017-12-05T12:18:54.311Z,83.23
2017-12-05T12:18:54.829Z,83.23
2017-12-05T12:18:55.346Z,82.76
2017-12-05T12:18:55.884Z,82.86
2017-12-05T12:18:56.459Z,82.86
2017-12-05T12:18:57.010Z,82.95
2017-12-05T12:18:57.527Z,82.76
2017-12-05T12:18:58.045Z,82.86
2017-12-05T12:18:58.567Z,83.42
2017-12-05T12:18:59.087Z,83.42
2017-12-05T12:18:59.667Z,83.23
2017-12-05T12:19:00.233Z,83.33
2017-12-05T12:19:00.783Z,83.42
2017-12-05T12:19:01.295Z,83.33
2017-12-05T12:19:01.837Z,83.23
2017-12-05T12:19:02.375Z,83.04
2017-12-05T12:19:02.931Z,83.04
2017-12-05T12:19:03.457Z,83.14
2017-12-05T12:19:04.079Z,83.04
2017-12-05T12:19:04.631Z,83.23
2017-12-05T12:19:05.169Z,83.23
2017-12-05T12:19:05.699Z,83.04
2017-12-05T12:19:06.255Z,83.33
2017-12-05T12:19:06.781Z,82.86
2017-12-05T12:19:07.311Z,83.23
2017-12-05T12:19:07.829Z,83.23
2017-12-05T12:19:08.353Z,82.86
2017-12-05T12:19:08.873Z,83.04
2017-12-05T12:19:09.417Z,82.86
2017-12-05T12:19:09.983Z,83.42
2017-12-05T12:19:10.563Z,82.86
2017-12-05T12:19:11.101Z,83.04
2017-12-05T12:19:11.651Z,82.86
2017-12-05T12:19:12.175Z,82.86
2017-12-05T12:19:12.713Z,83.42
2017-12-05T12:19:13.257Z,82.86
2017-12-05T12:19:13.809Z,83.04
2017-12-05T12:19:14.355Z,83.14
2017-12-05T12:19:14.942Z,82.95
2017-12-05T12:19:15.511Z,83.04
2017-12-05T12:19:16.043Z,83.42
2017-12-05T12:19:16.586Z,83.23
2017-12-05T12:19:17.125Z,83.33
2017-12-05T12:19:17.695Z,83.33
2017-12-05T12:19:18.215Z,83.23
2017-12-05T12:19:18.803Z,83.33
2017-12-05T12:19:19.355Z,83.33
2017-12-05T12:19:19.873Z,83.23
2017-12-05T12:19:20.419Z,83.04
2017-12-05T12:19:20.982Z,83.14
2017-12-05T12:19:21.577Z,83.23
2017-12-05T12:19:22.139Z,83.62
2017-12-05T12:19:22.654Z,83.71
2017-12-05T12:19:23.175Z,83.62
2017-12-05T12:19:23.730Z,83.71
2017-12-05T12:19:24.277Z,83.52
2017-12-05T12:19:24.851Z,83.62
2017-12-05T12:19:25.421Z,83.52
2017-12-05T12:19:25.965Z,83.62
2017-12-05T12:19:26.485Z,83.33
2017-12-05T12:19:27.003Z,83.90
2017-12-05T12:19:27.578Z,84.00
2017-12-05T12:19:28.137Z,83.90
2017-12-05T12:19:28.658Z,83.71
2017-12-05T12:19:29.185Z,83.62
2017-12-05T12:19:29.727Z,83.81
2017-12-05T12:19:30.306Z,83.62
2017-12-05T12:19:30.845Z,83.62
2017-12-05T12:19:31.421Z,83.71
2017-12-05T12:19:31.935Z,83.90
2017-12-05T12:19:32.506Z,83.90
2017-12-05T12:19:33.095Z,84.19
2017-12-05T12:19:33.668Z,84.00
2017-12-05T12:19:34.225Z,84.09
2017-12-05T12:19:34.773Z,84.19
2017-12-05T12:19:35.261Z,84.09
2017-12-05T12:19:35.759Z,83.81
2017-12-05T12:19:36.284Z,84.28
2017-12-05T12:19:36.808Z,84.47
2017-12-05T12:19:37.359Z,84.38
2017-12-05T12:19:37.909Z,84.56
2017-12-05T12:19:38.467Z,84.00
2017-12-05T12:19:39.009Z,84.19
2017-12-05T12:19:39.574Z,84.19
2017-12-05T12:19:40.137Z,84.19
2017-12-05T12:19:40.693Z,84.33
2017-12-05T12:19:41.215Z,84.76
2017-12-05T12:19:41.817Z,84.85
2017-12-05T12:19:42.374Z,84.47
2017-12-05T12:19:42.927Z,84.52
2017-12-05T12:19:43.502Z,84.33
2017-12-05T12:19:44.037Z,84.52
2017-12-05T12:19:44.672Z,84.09
2017-12-05T12:19:45.101Z,84.76
2017-12-05T12:19:45.648Z,84.52
2017-12-05T12:19:46.227Z,84.38
2017-12-05T12:19:46.768Z,84.72
2017-12-05T12:19:47.307Z,84.43
2017-12-05T12:19:47.829Z,84.43
2017-12-05T12:19:48.378Z,84.66
2017-12-05T12:19:48.931Z,84.81
2017-12-05T12:19:49.507Z,84.43
2017-12-05T12:19:50.057Z,84.62
2017-12-05T12:19:50.575Z,84.72
2017-12-05T12:19:51.097Z,84.91
2017-12-05T12:19:51.649Z,85.10
2017-12-05T12:19:52.219Z,84.91
2017-12-05T12:19:52.791Z,84.62
2017-12-05T12:19:53.315Z,84.81
2017-12-05T12:19:53.833Z,84.81
2017-12-05T12:19:54.388Z,84.91
2017-12-05T12:19:54.925Z,84.91
2017-12-05T12:19:55.503Z,85.00
2017-12-05T12:19:56.071Z,84.91
2017-12-05T12:19:56.607Z,84.91
2017-12-05T12:19:57.127Z,85.28
2017-12-05T12:19:57.678Z,85.19
2017-12-05T12:19:58.207Z,85.19
2017-12-05T12:19:58.782Z,85.38
2017-12-05T12:19:59.340Z,85.76
2017-12-05T12:19:59.863Z,85.38
2017-12-05T12:20:00.468Z,85.66
2017-12-05T12:20:01.016Z,85.47
2017-12-05T12:20:01.533Z,85.28
2017-12-05T12:20:02.131Z,85.47
2017-12-05T12:20:02.668Z,85.47
2017-12-05T12:20:03.254Z,85.57
2017-12-05T12:20:03.803Z,85.66
2017-12-05T12:20:04.331Z,85.47
2017-12-05T12:20:04.856Z,85.10
2017-12-05T12:20:05.388Z,85.28
2017-12-05T12:20:05.931Z,85.19
2017-12-05T12:20:06.454Z,85.28
2017-12-05T12:20:07.009Z,85.00
2017-12-05T12:20:07.577Z,85.10
2017-12-05T12:20:08.137Z,85.10
2017-12-05T12:20:08.690Z,85.10
2017-12-05T12:20:09.221Z,85.19
2017-12-05T12:20:09.815Z,85.47
2017-12-05T12:20:10.391Z,85.57
2017-12-05T12:20:10.929Z,85.28
2017-12-05T12:20:11.510Z,85.38
2017-12-05T12:20:12.061Z,85.47
2017-12-05T12:20:12.606Z,85.76
2017-12-05T12:20:13.167Z,85.38
2017-12-05T12:20:13.696Z,85.19
2017-12-05T12:20:14.267Z,85.28
2017-12-05T12:20:14.799Z,85.47
2017-12-05T12:20:15.337Z,85.66
2017-12-05T12:20:15.901Z,85.95
2017-12-05T12:20:16.473Z,85.76
2017-12-05T12:20:17.066Z,86.05
2017-12-05T12:20:17.627Z,85.95
2017-12-05T12:20:18.216Z,85.86
2017-12-05T12:20:18.776Z,85.76
2017-12-05T12:20:19.305Z,85.66
2017-12-05T12:20:19.897Z,85.66
2017-12-05T12:20:20.466Z,85.76
2017-12-05T12:20:21.027Z,85.95
2017-12-05T12:20:21.567Z,86.05
2017-12-05T12:20:22.130Z,85.95
2017-12-05T12:20:22.609Z,85.76
2017-12-05T12:20:23.142Z,85.76
2017-12-05T12:20:23.694Z,86.05
2017-12-05T12:20:24.219Z,85.95
2017-12-05T12:20:24.772Z,85.57
2017-12-05T12:20:25.349Z,86.33
2017-12-05T12:20:25.876Z,86.14
2017-12-05T12:20:26.371Z,86.14
2017-12-05T12:20:26.937Z,86.33
2017-12-05T12:20:27.510Z,86.24
2017-12-05T12:20:28.051Z,86.14
2017-12-05T12:20:28.572Z,86.24
2017-12-05T12:20:29.149Z,86.24
2017-12-05T12:20:29.733Z,85.95
2017-12-05T12:20:30.301Z,86.05
2017-12-05T12:20:30.851Z,86.24
2017-12-05T12:20:31.377Z,86.71
2017-12-05T12:20:31.898Z,86.71
2017-12-05T12:20:32.417Z,86.71
2017-12-05T12:20:32.944Z,86.43
2017-12-05T12:20:33.457Z,86.71
2017-12-05T12:20:33.985Z,86.61
2017-12-05T12:20:34.537Z,86.33
2017-12-05T12:20:35.111Z,86.33
2017-12-05T12:20:35.645Z,86.61
2017-12-05T12:20:36.213Z,86.52
2017-12-05T12:20:36.685Z,86.80
2017-12-05T12:20:37.232Z,86.71
2017-12-05T12:20:37.749Z,86.80
2017-12-05T12:20:38.300Z,86.61
2017-12-05T12:20:38.814Z,86.43
2017-12-05T12:20:39.331Z,86.43
2017-12-05T12:20:39.859Z,86.61
2017-12-05T12:20:40.383Z,86.52
2017-12-05T12:20:40.929Z,86.61
2017-12-05T12:20:41.503Z,86.61
2017-12-05T12:20:42.056Z,87.09
2017-12-05T12:20:42.601Z,87.09
2017-12-05T12:20:43.095Z,87.38
2017-12-05T12:20:43.616Z,86.99
2017-12-05T12:20:44.137Z,87.09
2017-12-05T12:20:44.690Z,87.19
2017-12-05T12:20:45.261Z,87.09
2017-12-05T12:20:45.802Z,86.99
2017-12-05T12:20:46.327Z,87.09
2017-12-05T12:20:46.843Z,86.99
2017-12-05T12:20:47.423Z,87.09
2017-12-05T12:20:47.955Z,86.90
2017-12-05T12:20:48.489Z,87.19
2017-12-05T12:20:49.037Z,87.09
2017-12-05T12:20:49.569Z,87.38
2017-12-05T12:20:50.084Z,87.09
2017-12-05T12:20:50.607Z,87.19
2017-12-05T12:20:51.127Z,87.28
2017-12-05T12:20:51.647Z,87.09
2017-12-05T12:20:52.178Z,86.90
2017-12-05T12:20:52.696Z,87.09
2017-12-05T12:20:53.225Z,86.90
2017-12-05T12:20:53.747Z,87.19
2017-12-05T12:20:54.304Z,86.80
2017-12-05T12:20:54.853Z,86.80
2017-12-05T12:20:55.466Z,87.38
2017-12-05T12:20:55.987Z,87.09
2017-12-05T12:20:56.503Z,86.99
2017-12-05T12:20:57.037Z,87.09
2017-12-05T12:20:57.563Z,87.28
2017-12-05T12:20:58.125Z,87.19
2017-12-05T12:20:58.653Z,87.85
2017-12-05T12:20:59.188Z,87.95
2017-12-05T12:20:59.726Z,88.04
2017-12-05T12:21:00.251Z,88.04
2017-12-05T12:21:00.769Z,88.04
2017-12-05T12:21:01.296Z,87.66
2017-12-05T12:21:01.827Z,87.66
2017-12-05T12:21:02.358Z,87.47
2017-12-05T12:21:02.906Z,87.66
2017-12-05T12:21:03.435Z,87.66
2017-12-05T12:21:03.967Z,87.47
2017-12-05T12:21:04.531Z,87.47
2017-12-05T12:21:05.057Z,87.66
2017-12-05T12:21:05.573Z,87.38
2017-12-05T12:21:06.097Z,87.66
2017-12-05T12:21:06.612Z,87.47
2017-12-05T12:21:07.124Z,87.66
2017-12-05T12:21:07.661Z,87.95
2017-12-05T12:21:08.237Z,87.38
2017-12-05T12:21:08.777Z,88.13
2017-12-05T12:21:09.396Z,87.85
2017-12-05T12:21:09.825Z,87.95
2017-12-05T12:21:10.363Z,87.57
2017-12-05T12:21:10.931Z,88.00
2017-12-05T12:21:11.467Z,87.90
2017-12-05T12:21:12.043Z,88.13
2017-12-05T12:21:12.519Z,87.85
2017-12-05T12:21:13.043Z,87.90
2017-12-05T12:21:13.569Z,88.28
2017-12-05T12:21:14.087Z,88.52
2017-12-05T12:21:14.653Z,88.19
2017-12-05T12:21:15.177Z,87.85
2017-12-05T12:21:15.728Z,88.00
2017-12-05T12:21:16.257Z,88.19
2017-12-05T12:21:16.783Z,87.85
2017-12-05T12:21:17.307Z,88.23
2017-12-05T12:21:17.829Z,87.90
2017-12-05T12:21:18.395Z,88.23